Terminal Aerodrome Forecast
Issued by NWS Tuscon, AZ

Home | Current Version | Previous Version | Text Only | Print | Product List | Glossary On
Versions: 1 2 3 4 5 6 7 8 9 10 11 12 13 14 15 16 17 18 19 20 21 22 23 24 25 26
000
FTUS45 KTWC 312300
TAFTUS
TAF
KTUS 312336Z 0100/0124 05006KT P6SM VCSH FEW010 BKN070
      TEMPO 0100/0102 -SHRA BKN040
     FM010700 14006KT P6SM FEW015 SCT025 BKN050
     FM012000 31005KT P6SM SCT050=

USA.gov is the U.S. government's official web portal to all federal, state and local government web resources and services.